Rochester, Ohio
Current Conditions -  °F | °C
As of 9:27 PM on Sunday 25 Jan 2015 (Local Time) from KLPR Reporting Station
Light Snow Light Snow  
Wind Chill:   Ceiling: 6000
Heat Index: 20°   Visibility: 6mi
Dew Point: 14°   Wind: 22mph
Humidity: 78%   Direction: 60°ENE
Pressure: 29.89"   Gusts: 30mph
Location:  41.1686°N, 82.2303°W
Report Text: KLPR 260227Z AUTO 06019G26KT 6SM -SN FEW014 SCT038 OVC060 M07/M10 A2989 RMK AO2 PK WND 05026/0224 P0000 T10671100 TSNO
Loading
Personal Weather Stations






























Interactive Weather Map New forecast layout! Learn more

10-Day Weather Forecast

Advertisements
Track Severe Weather on mobile